KPVD/PVD METAR and TAF weather

Enter ICAO airport designator
Station Type Date Time Source
KPVD METAR 2022/11/26 07:51 UTC NOAA

KPVD 260751Z AUTO 31008KT 10SM CLR 04/M04 A2983 RMK AO2 SLP100 T00441039


Station Type Date Time Source
KPVD Decoded METAR 2022/11/26 07:51 UTC NOAA

PROVIDENCE GREEN STATE AIRPORT , RI, United States (KPVD) 41-44N 071-26W 16M
Nov 26, 2022 - 02:51 AM EST / 2022.11.26 0751 UTC
Wind: from the NW (310 degrees) at 9 MPH (8 KT):0
Visibility: 10 mile(s):0
Sky conditions: clear
Temperature: 39.9 F (4.4 C)
Dew Point: 25.0 F (-3.9 C)
Relative Humidity: 54%
Pressure (altimeter): 29.83 in. Hg (1010 hPa)
ob: KPVD 260751Z AUTO 31008KT 10SM CLR 04/M04 A2983 RMK AO2 SLP100 T00441039
cycle: 8

Station Type Date Time Source
KPVD TAF 2022/11/26 06:27 UTC NOAA

TAF KPVD 260525Z 2606/2706 31013G25KT P6SM SKC
FM261700 26012G22KT P6SM SKC
FM262200 27009KT P6SM SKC

Example: see airport list